Terminal Aerodrome Forecast
Issued by NWS

Home | Current Version | Previous Version | Graphics & Text | Print | Product List | Glossary On
Versions: 1 2 3 4 5 6 7 8 9 10 11 12 13 14 15 16 17 18 19 20 21 22
000
FTUS43 KFGF 172300
TAFBJI
TAF
KBJI 172323Z 1800/1824 13008KT P6SM OVC009
     FM180300 12008KT P6SM BKN025
     FM180900 VRB05KT P6SM VCTS BKN030CB
     FM181500 17006KT P6SM BKN040
     FM181900 VRB06KT P6SM VCTS BKN040CB=

USA.gov is the U.S. government's official web portal to all federal, state and local government web resources and services.